sensor_id;sensor_type;location;lat;lon;timestamp;P1;durP1;ratioP1;P2;durP2;ratioP2
11171;SDS011;5642;50.830;12.082;2023-05-17T00:01:06;1.20;;;1.10;;
11171;SDS011;5642;50.830;12.082;2023-05-17T00:03:32;1.10;;;0.98;;
11171;SDS011;5642;50.830;12.082;2023-05-17T00:05:59;1.42;;;1.30;;
11171;SDS011;5642;50.830;12.082;2023-05-17T00:08:25;1.33;;;1.20;;
11171;SDS011;5642;50.830;12.082;2023-05-17T00:10:51;1.13;;;1.02;;
11171;SDS011;5642;50.830;12.082;2023-05-17T00:13:17;1.20;;;1.10;;
11171;SDS011;5642;50.830;12.082;2023-05-17T00:15:42;0.95;;;0.88;;
11171;SDS011;5642;50.830;12.082;2023-05-17T00:18:08;0.90;;;0.80;;
11171;SDS011;5642;50.830;12.082;2023-05-17T00:20:35;0.90;;;0.90;;
11171;SDS011;5642;50.830;12.082;2023-05-17T00:23:01;1.27;;;1.17;;
11171;SDS011;5642;50.830;12.082;2023-05-17T00:25:28;1.05;;;1.02;;
11171;SDS011;5642;50.830;12.082;2023-05-17T00:27:54;0.93;;;0.90;;
11171;SDS011;5642;50.830;12.082;2023-05-17T00:30:20;1.15;;;1.05;;
11171;SDS011;5642;50.830;12.082;2023-05-17T00:32:48;1.63;;;1.10;;
11171;SDS011;5642;50.830;12.082;2023-05-17T00:35:15;4.80;;;1.00;;
11171;SDS011;5642;50.830;12.082;2023-05-17T00:37:41;0.98;;;0.90;;
11171;SDS011;5642;50.830;12.082;2023-05-17T00:40:12;2.10;;;1.20;;
11171;SDS011;5642;50.830;12.082;2023-05-17T00:42:40;0.90;;;0.90;;
11171;SDS011;5642;50.830;12.082;2023-05-17T00:45:07;1.20;;;1.10;;
11171;SDS011;5642;50.830;12.082;2023-05-17T00:47:33;1.00;;;1.00;;
11171;SDS011;5642;50.830;12.082;2023-05-17T02:49:34;0.70;;;0.70;;
11171;SDS011;5642;50.830;12.082;2023-05-17T02:52:00;0.63;;;0.63;;
11171;SDS011;5642;50.830;12.082;2023-05-17T02:54:27;0.85;;;0.63;;
11171;SDS011;5642;50.830;12.082;2023-05-17T02:56:53;0.85;;;0.60;;
11171;SDS011;5642;50.830;12.082;2023-05-17T02:59:19;0.63;;;0.63;;
11171;SDS011;5642;50.830;12.082;2023-05-17T03:01:45;0.60;;;0.60;;
11171;SDS011;5642;50.830;12.082;2023-05-17T03:04:11;0.57;;;0.57;;
11171;SDS011;5642;50.830;12.082;2023-05-17T03:06:37;0.60;;;0.60;;
11171;SDS011;5642;50.830;12.082;2023-05-17T03:09:03;0.52;;;0.52;;
11171;SDS011;5642;50.830;12.082;2023-05-17T03:11:29;0.70;;;0.70;;
11171;SDS011;5642;50.830;12.082;2023-05-17T03:13:56;0.77;;;0.77;;
11171;SDS011;5642;50.830;12.082;2023-05-17T03:16:22;0.70;;;0.60;;
11171;SDS011;5642;50.830;12.082;2023-05-17T03:18:48;0.65;;;0.60;;
11171;SDS011;5642;50.830;12.082;2023-05-17T03:21:14;0.60;;;0.60;;
11171;SDS011;5642;50.830;12.082;2023-05-17T03:23:40;0.70;;;0.70;;
11171;SDS011;5642;50.830;12.082;2023-05-17T03:26:05;0.80;;;0.80;;
11171;SDS011;5642;50.830;12.082;2023-05-17T03:28:31;0.93;;;0.70;;
11171;SDS011;5642;50.830;12.082;2023-05-17T03:30:57;0.88;;;0.88;;
11171;SDS011;5642;50.830;12.082;2023-05-17T03:33:24;1.13;;;0.70;;
11171;SDS011;5642;50.830;12.082;2023-05-17T03:35:50;0.80;;;0.50;;
11171;SDS011;5642;50.830;12.082;2023-05-17T03:38:16;0.60;;;0.60;;
11171;SDS011;5642;50.830;12.082;2023-05-17T03:40:42;0.90;;;0.90;;
11171;SDS011;5642;50.830;12.082;2023-05-17T03:43:08;0.60;;;0.60;;
11171;SDS011;5642;50.830;12.082;2023-05-17T03:45:34;0.85;;;0.80;;
11171;SDS011;5642;50.830;12.082;2023-05-17T03:48:00;0.68;;;0.68;;
11171;SDS011;5642;50.830;12.082;2023-05-17T03:50:26;0.75;;;0.75;;
11171;SDS011;5642;50.830;12.082;2023-05-17T03:52:56;0.63;;;0.63;;
11171;SDS011;5642;50.830;12.082;2023-05-17T03:55:22;0.77;;;0.73;;
11171;SDS011;5642;50.830;12.082;2023-05-17T03:57:48;0.68;;;0.68;;
11171;SDS011;5642;50.830;12.082;2023-05-17T04:00:14;0.80;;;0.80;;
11171;SDS011;5642;50.830;12.082;2023-05-17T04:02:46;0.73;;;0.73;;
11171;SDS011;5642;50.830;12.082;2023-05-17T04:05:15;0.70;;;0.70;;
11171;SDS011;5642;50.830;12.082;2023-05-17T04:07:41;0.70;;;0.70;;
11171;SDS011;5642;50.830;12.082;2023-05-17T04:10:10;1.83;;;0.80;;
11171;SDS011;5642;50.830;12.082;2023-05-17T04:12:36;1.50;;;1.40;;
11171;SDS011;5642;50.830;12.082;2023-05-17T04:15:02;2.53;;;1.77;;
11171;SDS011;5642;50.830;12.082;2023-05-17T04:17:29;1.30;;;1.10;;
11171;SDS011;5642;50.830;12.082;2023-05-17T04:19:55;1.40;;;1.30;;
11171;SDS011;5642;50.830;12.082;2023-05-17T04:22:21;1.20;;;1.20;;
11171;SDS011;5642;50.830;12.082;2023-05-17T04:24:47;1.40;;;1.30;;
11171;SDS011;5642;50.830;12.082;2023-05-17T04:27:13;1.10;;;1.10;;
11171;SDS011;5642;50.830;12.082;2023-05-17T04:29:40;1.30;;;1.20;;
11171;SDS011;5642;50.830;12.082;2023-05-17T04:32:07;1.30;;;1.20;;
11171;SDS011;5642;50.830;12.082;2023-05-17T04:34:36;1.25;;;1.17;;
11171;SDS011;5642;50.830;12.082;2023-05-17T04:37:02;1.23;;;1.13;;
11171;SDS011;5642;50.830;12.082;2023-05-17T04:39:28;1.20;;;1.10;;
11171;SDS011;5642;50.830;12.082;2023-05-17T04:41:55;1.00;;;1.00;;
11171;SDS011;5642;50.830;12.082;2023-05-17T04:44:21;2.15;;;1.00;;
11171;SDS011;5642;50.830;12.082;2023-05-17T04:46:47;1.85;;;0.90;;
11171;SDS011;5642;50.830;12.082;2023-05-17T04:49:13;1.55;;;1.02;;
11171;SDS011;5642;50.830;12.082;2023-05-17T04:51:39;1.60;;;0.95;;
11171;SDS011;5642;50.830;12.082;2023-05-17T04:54:07;1.25;;;0.90;;
11171;SDS011;5642;50.830;12.082;2023-05-17T04:56:33;0.80;;;0.80;;
11171;SDS011;5642;50.830;12.082;2023-05-17T04:59:01;0.70;;;0.70;;
11171;SDS011;5642;50.830;12.082;2023-05-17T05:01:27;0.70;;;0.70;;
11171;SDS011;5642;50.830;12.082;2023-05-17T05:03:55;1.45;;;1.00;;
11171;SDS011;5642;50.830;12.082;2023-05-17T05:06:22;1.25;;;0.95;;
11171;SDS011;5642;50.830;12.082;2023-05-17T05:08:49;0.80;;;0.80;;
11171;SDS011;5642;50.830;12.082;2023-05-17T05:11:15;0.80;;;0.77;;
11171;SDS011;5642;50.830;12.082;2023-05-17T05:13:41;1.02;;;0.82;;
11171;SDS011;5642;50.830;12.082;2023-05-17T05:16:07;1.20;;;1.10;;
11171;SDS011;5642;50.830;12.082;2023-05-17T05:18:33;1.55;;;0.98;;
11171;SDS011;5642;50.830;12.082;2023-05-17T05:21:02;1.13;;;0.90;;
11171;SDS011;5642;50.830;12.082;2023-05-17T05:23:33;1.20;;;0.82;;
11171;SDS011;5642;50.830;12.082;2023-05-17T05:26:02;1.20;;;0.80;;
11171;SDS011;5642;50.830;12.082;2023-05-17T05:28:32;2.30;;;0.95;;
11171;SDS011;5642;50.830;12.082;2023-05-17T05:30:59;0.80;;;0.80;;
11171;SDS011;5642;50.830;12.082;2023-05-17T05:33:25;1.55;;;0.93;;
11171;SDS011;5642;50.830;12.082;2023-05-17T05:35:52;0.75;;;0.70;;
11171;SDS011;5642;50.830;12.082;2023-05-17T05:38:19;0.80;;;0.80;;
11171;SDS011;5642;50.830;12.082;2023-05-17T05:40:45;1.02;;;0.82;;
11171;SDS011;5642;50.830;12.082;2023-05-17T05:43:15;0.88;;;0.82;;
11171;SDS011;5642;50.830;12.082;2023-05-17T05:45:41;2.08;;;0.85;;
11171;SDS011;5642;50.830;12.082;2023-05-17T05:48:13;0.82;;;0.82;;
11171;SDS011;5642;50.830;12.082;2023-05-17T08:51:59;1.77;;;1.00;;
11171;SDS011;5642;50.830;12.082;2023-05-17T08:54:37;2.00;;;1.08;;
11171;SDS011;5642;50.830;12.082;2023-05-17T08:57:03;1.05;;;0.98;;
11171;SDS011;5642;50.830;12.082;2023-05-17T08:59:32;1.00;;;1.00;;
11171;SDS011;5642;50.830;12.082;2023-05-17T09:01:59;1.63;;;1.10;;
11171;SDS011;5642;50.830;12.082;2023-05-17T09:04:27;1.98;;;1.30;;
11171;SDS011;5642;50.830;12.082;2023-05-17T09:06:55;1.80;;;1.40;;
11171;SDS011;5642;50.830;12.082;2023-05-17T09:09:22;1.60;;;1.40;;
11171;SDS011;5642;50.830;12.082;2023-05-17T09:11:50;2.25;;;1.35;;
11171;SDS011;5642;50.830;12.082;2023-05-17T09:14:19;1.30;;;1.10;;
11171;SDS011;5642;50.830;12.082;2023-05-17T09:16:46;1.38;;;1.25;;
11171;SDS011;5642;50.830;12.082;2023-05-17T09:19:16;1.80;;;1.25;;
11171;SDS011;5642;50.830;12.082;2023-05-17T09:21:45;2.97;;;1.20;;
11171;SDS011;5642;50.830;12.082;2023-05-17T09:24:12;1.40;;;1.30;;
11171;SDS011;5642;50.830;12.082;2023-05-17T09:29:09;2.20;;;1.02;;
11171;SDS011;5642;50.830;12.082;2023-05-17T09:31:37;1.23;;;1.13;;
11171;SDS011;5642;50.830;12.082;2023-05-17T09:34:04;1.63;;;1.10;;
11171;SDS011;5642;50.830;12.082;2023-05-17T09:36:33;2.28;;;1.30;;
11171;SDS011;5642;50.830;12.082;2023-05-17T09:39:05;1.40;;;1.30;;
11171;SDS011;5642;50.830;12.082;2023-05-17T09:44:10;1.90;;;1.40;;
11171;SDS011;5642;50.830;12.082;2023-05-17T09:46:39;2.45;;;1.23;;
11171;SDS011;5642;50.830;12.082;2023-05-17T09:49:07;1.58;;;1.20;;
11171;SDS011;5642;50.830;12.082;2023-05-17T12:06:56;1.02;;;0.90;;
11171;SDS011;5642;50.830;12.082;2023-05-17T12:09:22;1.10;;;1.00;;
11171;SDS011;5642;50.830;12.082;2023-05-17T12:11:50;1.85;;;1.05;;
11171;SDS011;5642;50.830;12.082;2023-05-17T12:14:16;1.63;;;1.00;;
11171;SDS011;5642;50.830;12.082;2023-05-17T12:16:43;1.33;;;1.05;;
11171;SDS011;5642;50.830;12.082;2023-05-17T12:19:20;1.10;;;0.88;;
11171;SDS011;5642;50.830;12.082;2023-05-17T12:21:48;1.45;;;1.02;;
11171;SDS011;5642;50.830;12.082;2023-05-17T12:24:14;2.13;;;1.20;;
11171;SDS011;5642;50.830;12.082;2023-05-17T12:26:44;1.30;;;1.20;;
11171;SDS011;5642;50.830;12.082;2023-05-17T12:29:11;1.58;;;1.00;;
11171;SDS011;5642;50.830;12.082;2023-05-17T12:31:43;1.42;;;1.20;;
11171;SDS011;5642;50.830;12.082;2023-05-17T12:34:23;1.40;;;1.10;;
11171;SDS011;5642;50.830;12.082;2023-05-17T12:36:49;2.20;;;1.38;;
11171;SDS011;5642;50.830;12.082;2023-05-17T12:39:17;1.42;;;0.98;;
11171;SDS011;5642;50.830;12.082;2023-05-17T12:41:51;1.33;;;0.93;;
11171;SDS011;5642;50.830;12.082;2023-05-17T12:44:18;2.03;;;1.13;;
11171;SDS011;5642;50.830;12.082;2023-05-17T12:46:48;3.85;;;1.20;;
11171;SDS011;5642;50.830;12.082;2023-05-17T12:49:19;1.58;;;1.02;;
11171;SDS011;5642;50.830;12.082;2023-05-17T12:51:47;2.30;;;1.15;;
11171;SDS011;5642;50.830;12.082;2023-05-17T12:54:32;1.10;;;0.98;;
11171;SDS011;5642;50.830;12.082;2023-05-17T12:57:08;1.30;;;1.00;;
11171;SDS011;5642;50.830;12.082;2023-05-17T12:59:46;1.42;;;0.88;;
11171;SDS011;5642;50.830;12.082;2023-05-17T13:02:18;1.55;;;0.90;;
11171;SDS011;5642;50.830;12.082;2023-05-17T13:04:45;2.35;;;1.10;;
11171;SDS011;5642;50.830;12.082;2023-05-17T13:07:22;1.70;;;0.98;;
11171;SDS011;5642;50.830;12.082;2023-05-17T13:09:48;2.65;;;1.00;;
11171;SDS011;5642;50.830;12.082;2023-05-17T13:12:19;2.45;;;1.30;;
11171;SDS011;5642;50.830;12.082;2023-05-17T13:14:48;1.58;;;1.00;;
11171;SDS011;5642;50.830;12.082;2023-05-17T13:17:22;1.63;;;1.05;;
11171;SDS011;5642;50.830;12.082;2023-05-17T13:50:30;2.08;;;1.10;;
11171;SDS011;5642;50.830;12.082;2023-05-17T13:52:56;2.20;;;1.00;;
11171;SDS011;5642;50.830;12.082;2023-05-17T13:55:23;1.60;;;0.90;;
11171;SDS011;5642;50.830;12.082;2023-05-17T13:57:50;1.23;;;0.93;;
11171;SDS011;5642;50.830;12.082;2023-05-17T14:00:16;1.67;;;0.88;;
11171;SDS011;5642;50.830;12.082;2023-05-17T14:02:42;1.55;;;0.82;;
11171;SDS011;5642;50.830;12.082;2023-05-17T14:05:08;0.80;;;0.80;;
11171;SDS011;5642;50.830;12.082;2023-05-17T14:07:35;1.95;;;0.80;;
11171;SDS011;5642;50.830;12.082;2023-05-17T14:10:06;1.33;;;0.70;;
11171;SDS011;5642;50.830;12.082;2023-05-17T14:12:34;1.52;;;0.80;;
11171;SDS011;5642;50.830;12.082;2023-05-17T14:15:01;1.48;;;0.85;;
11171;SDS011;5642;50.830;12.082;2023-05-17T14:17:28;1.17;;;0.90;;
11171;SDS011;5642;50.830;12.082;2023-05-17T14:19:55;0.85;;;0.85;;
11171;SDS011;5642;50.830;12.082;2023-05-17T14:22:24;1.70;;;0.90;;
11171;SDS011;5642;50.830;12.082;2023-05-17T14:24:51;1.63;;;0.75;;
11171;SDS011;5642;50.830;12.082;2023-05-17T14:27:19;1.00;;;0.82;;
11171;SDS011;5642;50.830;12.082;2023-05-17T14:29:45;1.70;;;0.70;;
11171;SDS011;5642;50.830;12.082;2023-05-17T14:32:11;2.53;;;0.90;;
11171;SDS011;5642;50.830;12.082;2023-05-17T14:34:39;4.90;;;0.90;;
11171;SDS011;5642;50.830;12.082;2023-05-17T14:37:06;1.73;;;0.85;;
11171;SDS011;5642;50.830;12.082;2023-05-17T14:39:32;1.38;;;0.75;;
11171;SDS011;5642;50.830;12.082;2023-05-17T14:41:58;0.68;;;0.68;;
11171;SDS011;5642;50.830;12.082;2023-05-17T14:44:25;1.15;;;0.80;;
11171;SDS011;5642;50.830;12.082;2023-05-17T14:46:51;0.88;;;0.60;;
11171;SDS011;5642;50.830;12.082;2023-05-17T14:49:17;0.70;;;0.63;;
11171;SDS011;5642;50.830;12.082;2023-05-17T14:51:47;1.73;;;0.80;;
11171;SDS011;5642;50.830;12.082;2023-05-17T14:54:14;1.27;;;0.70;;
11171;SDS011;5642;50.830;12.082;2023-05-17T14:56:41;0.85;;;0.60;;
11171;SDS011;5642;50.830;12.082;2023-05-17T14:59:07;1.13;;;0.70;;
11171;SDS011;5642;50.830;12.082;2023-05-17T15:01:34;0.98;;;0.75;;
11171;SDS011;5642;50.830;12.082;2023-05-17T15:04:01;1.38;;;0.80;;
11171;SDS011;5642;50.830;12.082;2023-05-17T15:06:27;1.63;;;0.82;;
11171;SDS011;5642;50.830;12.082;2023-05-17T15:08:55;1.38;;;0.80;;
11171;SDS011;5642;50.830;12.082;2023-05-17T15:11:22;1.60;;;0.88;;
11171;SDS011;5642;50.830;12.082;2023-05-17T15:13:48;2.15;;;0.75;;
11171;SDS011;5642;50.830;12.082;2023-05-17T15:16:14;1.15;;;0.70;;
11171;SDS011;5642;50.830;12.082;2023-05-17T15:18:41;1.85;;;0.77;;
11171;SDS011;5642;50.830;12.082;2023-05-17T15:21:08;0.88;;;0.70;;
11171;SDS011;5642;50.830;12.082;2023-05-17T15:23:35;1.00;;;0.60;;
11171;SDS011;5642;50.830;12.082;2023-05-17T15:26:04;0.88;;;0.80;;
11171;SDS011;5642;50.830;12.082;2023-05-17T15:28:31;1.20;;;0.60;;
11171;SDS011;5642;50.830;12.082;2023-05-17T15:31:04;0.82;;;0.60;;
11171;SDS011;5642;50.830;12.082;2023-05-17T15:33:31;1.25;;;0.80;;
11171;SDS011;5642;50.830;12.082;2023-05-17T15:35:57;2.05;;;0.75;;
11171;SDS011;5642;50.830;12.082;2023-05-17T15:38:23;1.65;;;0.80;;
11171;SDS011;5642;50.830;12.082;2023-05-17T15:41:12;0.70;;;0.70;;
11171;SDS011;5642;50.830;12.082;2023-05-17T15:43:39;1.05;;;0.60;;
11171;SDS011;5642;50.830;12.082;2023-05-17T15:46:06;0.75;;;0.60;;
11171;SDS011;5642;50.830;12.082;2023-05-17T15:48:32;1.15;;;0.80;;
11171;SDS011;5642;50.830;12.082;2023-05-17T15:51:01;1.75;;;0.88;;
11171;SDS011;5642;50.830;12.082;2023-05-17T15:53:27;1.17;;;0.80;;
11171;SDS011;5642;50.830;12.082;2023-05-17T15:55:54;0.85;;;0.80;;
11171;SDS011;5642;50.830;12.082;2023-05-17T15:58:21;0.63;;;0.63;;
11171;SDS011;5642;50.830;12.082;2023-05-17T16:00:58;1.52;;;0.70;;
11171;SDS011;5642;50.830;12.082;2023-05-17T16:03:27;1.77;;;0.98;;
11171;SDS011;5642;50.830;12.082;2023-05-17T16:05:54;1.80;;;0.70;;
11171;SDS011;5642;50.830;12.082;2023-05-17T16:08:20;1.15;;;0.80;;
11171;SDS011;5642;50.830;12.082;2023-05-17T16:10:48;1.73;;;0.90;;
11171;SDS011;5642;50.830;12.082;2023-05-17T16:13:14;1.52;;;0.80;;
11171;SDS011;5642;50.830;12.082;2023-05-17T16:15:47;1.60;;;0.95;;
11171;SDS011;5642;50.830;12.082;2023-05-17T16:18:15;3.00;;;1.10;;
11171;SDS011;5642;50.830;12.082;2023-05-17T16:20:42;2.08;;;1.10;;
11171;SDS011;5642;50.830;12.082;2023-05-17T16:23:09;1.27;;;0.85;;
11171;SDS011;5642;50.830;12.082;2023-05-17T16:25:36;1.58;;;0.88;;
11171;SDS011;5642;50.830;12.082;2023-05-17T16:28:02;0.85;;;0.80;;
11171;SDS011;5642;50.830;12.082;2023-05-17T16:30:31;3.42;;;1.00;;
11171;SDS011;5642;50.830;12.082;2023-05-17T16:33:00;1.63;;;0.60;;
11171;SDS011;5642;50.830;12.082;2023-05-17T16:35:27;1.33;;;0.70;;
11171;SDS011;5642;50.830;12.082;2023-05-17T16:37:53;0.77;;;0.60;;
11171;SDS011;5642;50.830;12.082;2023-05-17T16:40:19;2.13;;;0.90;;
11171;SDS011;5642;50.830;12.082;2023-05-17T16:42:45;1.75;;;0.80;;
11171;SDS011;5642;50.830;12.082;2023-05-17T16:45:11;1.48;;;0.80;;
11171;SDS011;5642;50.830;12.082;2023-05-17T16:47:38;1.63;;;0.82;;
11171;SDS011;5642;50.830;12.082;2023-05-17T16:50:04;1.90;;;0.90;;
11171;SDS011;5642;50.830;12.082;2023-05-17T16:52:31;1.65;;;0.80;;
11171;SDS011;5642;50.830;12.082;2023-05-17T17:56:21;1.67;;;0.90;;
11171;SDS011;5642;50.830;12.082;2023-05-17T17:58:51;2.10;;;0.90;;
11171;SDS011;5642;50.830;12.082;2023-05-17T18:01:21;1.88;;;1.02;;
11171;SDS011;5642;50.830;12.082;2023-05-17T18:03:47;1.40;;;0.60;;
11171;SDS011;5642;50.830;12.082;2023-05-17T18:06:16;1.80;;;0.90;;
11171;SDS011;5642;50.830;12.082;2023-05-17T18:08:44;1.83;;;0.90;;
11171;SDS011;5642;50.830;12.082;2023-05-17T18:11:11;1.98;;;0.93;;
11171;SDS011;5642;50.830;12.082;2023-05-17T18:13:38;1.38;;;0.75;;
11171;SDS011;5642;50.830;12.082;2023-05-17T18:16:04;1.13;;;0.70;;
11171;SDS011;5642;50.830;12.082;2023-05-17T18:18:31;1.98;;;0.98;;
11171;SDS011;5642;50.830;12.082;2023-05-17T18:20:57;1.73;;;0.90;;
11171;SDS011;5642;50.830;12.082;2023-05-17T18:23:23;1.60;;;0.80;;
11171;SDS011;5642;50.830;12.082;2023-05-17T18:25:49;0.63;;;0.63;;
11171;SDS011;5642;50.830;12.082;2023-05-17T18:28:15;1.42;;;1.17;;
11171;SDS011;5642;50.830;12.082;2023-05-17T18:30:42;1.27;;;1.00;;
11171;SDS011;5642;50.830;12.082;2023-05-17T18:33:08;2.10;;;0.80;;
11171;SDS011;5642;50.830;12.082;2023-05-17T18:35:34;1.27;;;0.80;;
11171;SDS011;5642;50.830;12.082;2023-05-17T18:38:01;1.58;;;0.70;;
11171;SDS011;5642;50.830;12.082;2023-05-17T18:40:27;1.80;;;0.90;;
11171;SDS011;5642;50.830;12.082;2023-05-17T18:42:53;1.80;;;0.80;;
11171;SDS011;5642;50.830;12.082;2023-05-17T18:45:20;1.80;;;0.93;;
11171;SDS011;5642;50.830;12.082;2023-05-17T18:47:47;1.20;;;0.90;;
11171;SDS011;5642;50.830;12.082;2023-05-17T18:50:13;1.48;;;0.80;;
11171;SDS011;5642;50.830;12.082;2023-05-17T18:52:40;1.05;;;0.98;;
11171;SDS011;5642;50.830;12.082;2023-05-17T20:57:35;1.00;;;0.85;;
11171;SDS011;5642;50.830;12.082;2023-05-17T21:00:03;1.63;;;0.93;;
11171;SDS011;5642;50.830;12.082;2023-05-17T21:02:30;1.23;;;0.77;;
11171;SDS011;5642;50.830;12.082;2023-05-17T21:04:56;1.83;;;1.10;;
11171;SDS011;5642;50.830;12.082;2023-05-17T21:07:22;1.17;;;1.02;;
11171;SDS011;5642;50.830;12.082;2023-05-17T21:09:53;0.93;;;0.90;;
11171;SDS011;5642;50.830;12.082;2023-05-17T21:12:19;1.15;;;1.00;;
11171;SDS011;5642;50.830;12.082;2023-05-17T21:14:44;1.65;;;0.90;;
11171;SDS011;5642;50.830;12.082;2023-05-17T21:17:10;1.00;;;0.90;;
11171;SDS011;5642;50.830;12.082;2023-05-17T21:19:36;1.48;;;1.02;;
11171;SDS011;5642;50.830;12.082;2023-05-17T21:22:02;1.45;;;1.08;;
11171;SDS011;5642;50.830;12.082;2023-05-17T21:24:29;1.77;;;0.95;;
11171;SDS011;5642;50.830;12.082;2023-05-17T21:26:55;2.08;;;1.00;;
11171;SDS011;5642;50.830;12.082;2023-05-17T21:29:20;1.08;;;0.98;;
11171;SDS011;5642;50.830;12.082;2023-05-17T21:31:53;1.33;;;1.23;;
11171;SDS011;5642;50.830;12.082;2023-05-17T21:34:19;2.50;;;1.10;;
11171;SDS011;5642;50.830;12.082;2023-05-17T21:36:45;1.48;;;0.77;;
11171;SDS011;5642;50.830;12.082;2023-05-17T21:39:11;2.00;;;1.00;;
11171;SDS011;5642;50.830;12.082;2023-05-17T21:41:37;1.38;;;1.10;;
11171;SDS011;5642;50.830;12.082;2023-05-17T21:44:03;0.90;;;0.90;;
11171;SDS011;5642;50.830;12.082;2023-05-17T21:46:29;2.13;;;1.02;;
11171;SDS011;5642;50.830;12.082;2023-05-17T21:48:55;1.10;;;1.00;;
11171;SDS011;5642;50.830;12.082;2023-05-17T21:51:21;0.98;;;0.98;;
11171;SDS011;5642;50.830;12.082;2023-05-17T21:53:47;1.58;;;1.00;;
11171;SDS011;5642;50.830;12.082;2023-05-17T21:56:14;1.13;;;1.02;;
11171;SDS011;5642;50.830;12.082;2023-05-17T21:58:41;1.48;;;1.00;;
11171;SDS011;5642;50.830;12.082;2023-05-17T22:01:07;1.55;;;0.98;;
11171;SDS011;5642;50.830;12.082;2023-05-17T22:03:33;1.65;;;1.10;;
11171;SDS011;5642;50.830;12.082;2023-05-17T22:05:59;1.10;;;0.95;;
11171;SDS011;5642;50.830;12.082;2023-05-17T22:08:25;1.40;;;0.98;;
11171;SDS011;5642;50.830;12.082;2023-05-17T22:10:52;1.98;;;1.33;;
11171;SDS011;5642;50.830;12.082;2023-05-17T22:13:20;1.67;;;1.20;;
11171;SDS011;5642;50.830;12.082;2023-05-17T22:15:50;1.70;;;1.10;;
11171;SDS011;5642;50.830;12.082;2023-05-17T22:18:21;1.83;;;1.30;;
11171;SDS011;5642;50.830;12.082;2023-05-17T22:20:48;1.42;;;1.10;;
11171;SDS011;5642;50.830;12.082;2023-05-17T22:23:18;1.35;;;1.02;;
11171;SDS011;5642;50.830;12.082;2023-05-17T22:25:44;1.20;;;1.10;;
11171;SDS011;5642;50.830;12.082;2023-05-17T22:28:10;1.40;;;1.10;;
11171;SDS011;5642;50.830;12.082;2023-05-17T22:30:37;1.25;;;1.15;;
11171;SDS011;5642;50.830;12.082;2023-05-17T22:33:02;2.63;;;1.10;;
11171;SDS011;5642;50.830;12.082;2023-05-17T22:35:28;1.52;;;1.17;;
11171;SDS011;5642;50.830;12.082;2023-05-17T22:37:54;1.83;;;1.20;;
11171;SDS011;5642;50.830;12.082;2023-05-17T22:40:20;1.17;;;1.00;;
11171;SDS011;5642;50.830;12.082;2023-05-17T22:42:46;3.28;;;1.30;;
11171;SDS011;5642;50.830;12.082;2023-05-17T22:45:12;1.80;;;1.27;;
11171;SDS011;5642;50.830;12.082;2023-05-17T22:47:39;2.03;;;1.02;;
11171;SDS011;5642;50.830;12.082;2023-05-17T22:50:11;1.95;;;1.38;;
11171;SDS011;5642;50.830;12.082;2023-05-17T22:52:40;1.73;;;1.10;;
11171;SDS011;5642;50.830;12.082;2023-05-17T22:55:08;2.47;;;1.20;;
11171;SDS011;5642;50.830;12.082;2023-05-17T23:59:03;1.10;;;1.00;;
